メインページ
METAR-TAF:

METAR-TAF

空港 :

スタンリー, フォークランド諸島

マウント・プレザント空軍基地

緯度: 51-49S, 経度: 058-27W, 海抜: 74m

現時点の気象観測

当レポートは1時間3分前の00:50(UTC)に作成
北西の風 7kt
気温 0°C
湿度 69%
気圧 1021 hPa
視程10km以上
1,500メートル以下は雲なし、積乱雲なし

METAR: EGYP 260050Z 31007KT CAVOK 00/M05 Q1021 BLU

時間: 22:53 (01:53 UTC)

予報

当レポートは3時間7分前の22:46(UTC)に作成
予報は26日の 00時(UTC)から 26日の 18時(UTC)まで有効
西/北西の風 12kt
視程10km以上
高度4000ftの雲は散在している
確率 40% :
26日の 06時(UTC)から 26日の 12時(UTC)まで一時的に
視程: 7000m
高度800ftの雲は散在している
(弱い) にわか雨, 氷霰/雪霰, 弱いにわか雨, 雪
確率 30% :
26日の 06時(UTC)から 26日の 12時(UTC)まで一時的に
視程: 1400m
高度400ftの雲は散在している
にわか雪
26日の 07時(UTC)から 26日の 10時(UTC)まで徐々に
西の風 15kt

TAF: EGYP 252246Z 2600/2618 30012KT 9999 SCT040 PROB40 TEMPO 2606/2612 7000 -SHGS -SHRASN SCT008 PROB30 TEMPO 2606/2612 1400 SHSN SCT004 BECMG 2607/2610 26015KT

4,000以上の空港の気象観測と天気予報(METAR報とTAF報)

利用可能な観測所は地図上に黄色い丸と赤い丸で示す。

丸の上にカーソルを重ねると観測所名を参照できる。

次にクリックすると気象観測と天気予報を参照できる。

マップの切り替え:黒色「×」印の緑ボタンをクリックして拡大、「-」印の緑ボタンをクリックして縮小、緑色の三角印をクリックして隣りの地図に切り替え


METAR-TAF: